sensor_id;sensor_type;location;lat;lon;timestamp;temperature;humidity
3942;DHT22;1985;48.592;8.850;2024-02-23T00:00:51;5.20;99.90
3942;DHT22;1985;48.592;8.850;2024-02-23T00:03:17;5.20;99.90
3942;DHT22;1985;48.592;8.850;2024-02-23T00:05:42;5.20;99.90
3942;DHT22;1985;48.592;8.850;2024-02-23T00:08:08;5.20;99.90
3942;DHT22;1985;48.592;8.850;2024-02-23T00:10:36;5.30;99.90
3942;DHT22;1985;48.592;8.850;2024-02-23T00:13:02;5.30;99.90
3942;DHT22;1985;48.592;8.850;2024-02-23T00:15:27;5.30;99.90
3942;DHT22;1985;48.592;8.850;2024-02-23T00:17:53;5.40;99.90
3942;DHT22;1985;48.592;8.850;2024-02-23T00:20:19;5.40;99.90
3942;DHT22;1985;48.592;8.850;2024-02-23T00:22:44;5.40;99.90
3942;DHT22;1985;48.592;8.850;2024-02-23T00:25:10;5.50;99.90
3942;DHT22;1985;48.592;8.850;2024-02-23T00:27:36;5.50;99.90
3942;DHT22;1985;48.592;8.850;2024-02-23T00:30:01;5.60;99.90
3942;DHT22;1985;48.592;8.850;2024-02-23T00:32:27;5.60;99.90
3942;DHT22;1985;48.592;8.850;2024-02-23T00:34:53;5.60;99.90
3942;DHT22;1985;48.592;8.850;2024-02-23T00:37:18;5.60;99.90
3942;DHT22;1985;48.592;8.850;2024-02-23T00:39:44;5.60;99.90
3942;DHT22;1985;48.592;8.850;2024-02-23T00:42:10;5.60;99.90
3942;DHT22;1985;48.592;8.850;2024-02-23T00:44:35;5.60;99.90
3942;DHT22;1985;48.592;8.850;2024-02-23T00:47:01;5.70;99.90
3942;DHT22;1985;48.592;8.850;2024-02-23T00:49:29;5.60;99.90
3942;DHT22;1985;48.592;8.850;2024-02-23T00:51:55;5.60;99.90
3942;DHT22;1985;48.592;8.850;2024-02-23T00:54:21;5.60;99.90
3942;DHT22;1985;48.592;8.850;2024-02-23T00:56:47;5.60;99.90
3942;DHT22;1985;48.592;8.850;2024-02-23T00:59:12;5.60;99.90
3942;DHT22;1985;48.592;8.850;2024-02-23T01:01:38;5.60;99.90
3942;DHT22;1985;48.592;8.850;2024-02-23T01:04:04;5.50;99.90
3942;DHT22;1985;48.592;8.850;2024-02-23T01:06:30;5.50;99.90
3942;DHT22;1985;48.592;8.850;2024-02-23T01:08:55;5.50;99.90
3942;DHT22;1985;48.592;8.850;2024-02-23T01:11:21;5.50;99.90
3942;DHT22;1985;48.592;8.850;2024-02-23T01:13:47;5.50;99.90
3942;DHT22;1985;48.592;8.850;2024-02-23T01:16:12;5.50;99.90
3942;DHT22;1985;48.592;8.850;2024-02-23T01:18:38;5.50;99.90
3942;DHT22;1985;48.592;8.850;2024-02-23T01:21:04;5.50;99.90
3942;DHT22;1985;48.592;8.850;2024-02-23T01:23:29;5.50;99.90
3942;DHT22;1985;48.592;8.850;2024-02-23T01:25:55;5.50;99.90
3942;DHT22;1985;48.592;8.850;2024-02-23T01:28:20;5.50;99.90
3942;DHT22;1985;48.592;8.850;2024-02-23T01:30:46;5.50;99.90
3942;DHT22;1985;48.592;8.850;2024-02-23T01:33:11;5.50;99.90
3942;DHT22;1985;48.592;8.850;2024-02-23T01:35:37;5.50;99.90
3942;DHT22;1985;48.592;8.850;2024-02-23T01:38:03;5.60;99.90
3942;DHT22;1985;48.592;8.850;2024-02-23T01:40:29;5.50;99.90
3942;DHT22;1985;48.592;8.850;2024-02-23T01:43:20;5.50;99.90
3942;DHT22;1985;48.592;8.850;2024-02-23T01:45:46;5.50;99.90
3942;DHT22;1985;48.592;8.850;2024-02-23T01:48:12;5.50;99.90
3942;DHT22;1985;48.592;8.850;2024-02-23T01:50:38;5.40;99.90
3942;DHT22;1985;48.592;8.850;2024-02-23T01:53:05;5.30;99.90
3942;DHT22;1985;48.592;8.850;2024-02-23T01:55:31;5.40;99.90
3942;DHT22;1985;48.592;8.850;2024-02-23T01:57:58;5.60;99.90
3942;DHT22;1985;48.592;8.850;2024-02-23T02:00:24;5.60;99.90
3942;DHT22;1985;48.592;8.850;2024-02-23T02:02:49;5.60;99.90
3942;DHT22;1985;48.592;8.850;2024-02-23T02:05:15;5.60;99.90
3942;DHT22;1985;48.592;8.850;2024-02-23T02:07:41;5.50;99.90
3942;DHT22;1985;48.592;8.850;2024-02-23T02:10:09;5.50;99.90
3942;DHT22;1985;48.592;8.850;2024-02-23T02:12:35;5.50;99.90
3942;DHT22;1985;48.592;8.850;2024-02-23T02:15:01;5.40;99.90
3942;DHT22;1985;48.592;8.850;2024-02-23T02:17:30;5.40;99.90
3942;DHT22;1985;48.592;8.850;2024-02-23T02:19:58;5.50;99.90
3942;DHT22;1985;48.592;8.850;2024-02-23T02:22:24;5.40;99.90
3942;DHT22;1985;48.592;8.850;2024-02-23T02:24:50;5.30;99.90
3942;DHT22;1985;48.592;8.850;2024-02-23T02:27:15;5.40;99.90
3942;DHT22;1985;48.592;8.850;2024-02-23T02:29:41;5.30;99.90
3942;DHT22;1985;48.592;8.850;2024-02-23T02:32:06;5.30;99.90
3942;DHT22;1985;48.592;8.850;2024-02-23T02:34:32;5.30;99.90
3942;DHT22;1985;48.592;8.850;2024-02-23T02:36:58;5.20;99.90
3942;DHT22;1985;48.592;8.850;2024-02-23T02:39:24;5.20;99.90
3942;DHT22;1985;48.592;8.850;2024-02-23T02:41:50;5.20;99.90
3942;DHT22;1985;48.592;8.850;2024-02-23T02:44:15;5.10;99.90
3942;DHT22;1985;48.592;8.850;2024-02-23T02:46:41;5.20;99.90
3942;DHT22;1985;48.592;8.850;2024-02-23T02:49:07;5.20;99.90
3942;DHT22;1985;48.592;8.850;2024-02-23T02:51:33;5.10;99.90
3942;DHT22;1985;48.592;8.850;2024-02-23T02:53:59;5.10;99.90
3942;DHT22;1985;48.592;8.850;2024-02-23T02:56:24;5.10;99.90
3942;DHT22;1985;48.592;8.850;2024-02-23T02:58:50;5.10;99.90
3942;DHT22;1985;48.592;8.850;2024-02-23T03:01:16;5.00;99.90
3942;DHT22;1985;48.592;8.850;2024-02-23T03:03:41;5.00;99.90
3942;DHT22;1985;48.592;8.850;2024-02-23T03:06:07;4.90;99.90
3942;DHT22;1985;48.592;8.850;2024-02-23T03:08:33;4.90;99.90
3942;DHT22;1985;48.592;8.850;2024-02-23T03:10:59;4.90;99.90
3942;DHT22;1985;48.592;8.850;2024-02-23T03:13:24;5.00;99.90
3942;DHT22;1985;48.592;8.850;2024-02-23T03:15:50;4.90;99.90
3942;DHT22;1985;48.592;8.850;2024-02-23T03:18:16;4.90;99.90
3942;DHT22;1985;48.592;8.850;2024-02-23T03:20:42;5.00;99.90
3942;DHT22;1985;48.592;8.850;2024-02-23T03:23:08;5.00;99.90
3942;DHT22;1985;48.592;8.850;2024-02-23T03:25:33;4.90;99.90
3942;DHT22;1985;48.592;8.850;2024-02-23T03:27:59;4.90;99.90
3942;DHT22;1985;48.592;8.850;2024-02-23T03:30:25;4.90;99.90
3942;DHT22;1985;48.592;8.850;2024-02-23T03:32:51;4.80;99.90
3942;DHT22;1985;48.592;8.850;2024-02-23T03:35:17;4.80;99.90
3942;DHT22;1985;48.592;8.850;2024-02-23T03:37:42;4.90;99.90
3942;DHT22;1985;48.592;8.850;2024-02-23T03:40:08;4.80;99.90
3942;DHT22;1985;48.592;8.850;2024-02-23T03:42:35;4.80;99.90
3942;DHT22;1985;48.592;8.850;2024-02-23T03:45:01;4.90;99.90
3942;DHT22;1985;48.592;8.850;2024-02-23T03:47:27;4.90;99.90
3942;DHT22;1985;48.592;8.850;2024-02-23T03:49:53;4.90;99.90
3942;DHT22;1985;48.592;8.850;2024-02-23T03:52:19;4.90;99.90
3942;DHT22;1985;48.592;8.850;2024-02-23T03:54:45;4.80;99.90
3942;DHT22;1985;48.592;8.850;2024-02-23T03:57:11;4.80;99.90
3942;DHT22;1985;48.592;8.850;2024-02-23T03:59:36;4.80;99.90
3942;DHT22;1985;48.592;8.850;2024-02-23T04:02:06;4.80;99.90
3942;DHT22;1985;48.592;8.850;2024-02-23T04:04:32;4.90;99.90
3942;DHT22;1985;48.592;8.850;2024-02-23T04:06:58;4.90;99.90
3942;DHT22;1985;48.592;8.850;2024-02-23T04:09:23;4.90;99.90
3942;DHT22;1985;48.592;8.850;2024-02-23T04:11:50;5.00;99.90
3942;DHT22;1985;48.592;8.850;2024-02-23T04:14:15;5.10;99.90
3942;DHT22;1985;48.592;8.850;2024-02-23T04:16:41;5.10;99.90
3942;DHT22;1985;48.592;8.850;2024-02-23T04:19:07;5.00;99.90
3942;DHT22;1985;48.592;8.850;2024-02-23T04:21:32;4.90;99.90
3942;DHT22;1985;48.592;8.850;2024-02-23T04:23:58;4.90;99.90
3942;DHT22;1985;48.592;8.850;2024-02-23T04:26:24;5.00;99.90
3942;DHT22;1985;48.592;8.850;2024-02-23T04:28:49;5.00;99.90
3942;DHT22;1985;48.592;8.850;2024-02-23T04:31:15;5.00;99.90
3942;DHT22;1985;48.592;8.850;2024-02-23T04:33:40;5.10;99.90
3942;DHT22;1985;48.592;8.850;2024-02-23T04:36:06;5.20;99.90
3942;DHT22;1985;48.592;8.850;2024-02-23T04:38:33;5.10;99.90
3942;DHT22;1985;48.592;8.850;2024-02-23T04:41:03;5.10;99.90
3942;DHT22;1985;48.592;8.850;2024-02-23T04:43:29;5.20;99.90
3942;DHT22;1985;48.592;8.850;2024-02-23T04:45:55;5.20;99.90
3942;DHT22;1985;48.592;8.850;2024-02-23T04:48:20;5.20;99.90
3942;DHT22;1985;48.592;8.850;2024-02-23T04:50:46;5.30;99.90
3942;DHT22;1985;48.592;8.850;2024-02-23T04:53:12;5.40;99.90
3942;DHT22;1985;48.592;8.850;2024-02-23T04:55:37;5.50;99.90
3942;DHT22;1985;48.592;8.850;2024-02-23T04:58:03;5.70;99.90
3942;DHT22;1985;48.592;8.850;2024-02-23T05:00:29;5.70;99.90
3942;DHT22;1985;48.592;8.850;2024-02-23T05:02:59;5.80;99.90
3942;DHT22;1985;48.592;8.850;2024-02-23T05:05:25;5.90;99.90
3942;DHT22;1985;48.592;8.850;2024-02-23T05:07:51;6.00;99.90
3942;DHT22;1985;48.592;8.850;2024-02-23T05:10:16;6.00;99.90
3942;DHT22;1985;48.592;8.850;2024-02-23T05:12:42;6.00;99.90
3942;DHT22;1985;48.592;8.850;2024-02-23T05:15:08;6.00;99.90
3942;DHT22;1985;48.592;8.850;2024-02-23T05:17:34;5.90;99.90
3942;DHT22;1985;48.592;8.850;2024-02-23T05:20:00;5.90;99.90
3942;DHT22;1985;48.592;8.850;2024-02-23T05:22:25;6.00;99.90
3942;DHT22;1985;48.592;8.850;2024-02-23T05:24:51;6.00;99.90
3942;DHT22;1985;48.592;8.850;2024-02-23T05:27:16;6.00;99.90
3942;DHT22;1985;48.592;8.850;2024-02-23T05:29:42;6.00;99.90
3942;DHT22;1985;48.592;8.850;2024-02-23T05:32:08;6.10;99.90
3942;DHT22;1985;48.592;8.850;2024-02-23T05:34:33;6.10;99.90
3942;DHT22;1985;48.592;8.850;2024-02-23T05:37:00;6.10;99.90
3942;DHT22;1985;48.592;8.850;2024-02-23T05:39:27;6.10;99.90
3942;DHT22;1985;48.592;8.850;2024-02-23T05:41:53;6.00;99.90
3942;DHT22;1985;48.592;8.850;2024-02-23T05:44:18;5.90;99.90
3942;DHT22;1985;48.592;8.850;2024-02-23T05:46:44;5.80;99.90
3942;DHT22;1985;48.592;8.850;2024-02-23T05:49:09;5.70;99.90
3942;DHT22;1985;48.592;8.850;2024-02-23T05:51:35;5.70;99.90
3942;DHT22;1985;48.592;8.850;2024-02-23T05:54:01;5.60;99.90
3942;DHT22;1985;48.592;8.850;2024-02-23T05:56:26;5.50;99.90
3942;DHT22;1985;48.592;8.850;2024-02-23T05:58:52;5.40;99.90
3942;DHT22;1985;48.592;8.850;2024-02-23T06:01:18;5.30;99.90
3942;DHT22;1985;48.592;8.850;2024-02-23T06:03:44;5.20;99.90
3942;DHT22;1985;48.592;8.850;2024-02-23T06:06:11;5.20;99.90
3942;DHT22;1985;48.592;8.850;2024-02-23T06:08:37;5.20;99.90
3942;DHT22;1985;48.592;8.850;2024-02-23T06:11:03;5.20;99.90
3942;DHT22;1985;48.592;8.850;2024-02-23T06:13:30;5.20;99.90
3942;DHT22;1985;48.592;8.850;2024-02-23T06:15:55;5.20;99.90
3942;DHT22;1985;48.592;8.850;2024-02-23T06:18:21;5.10;99.90
3942;DHT22;1985;48.592;8.850;2024-02-23T06:20:47;5.20;99.90
3942;DHT22;1985;48.592;8.850;2024-02-23T06:23:13;5.10;99.90
3942;DHT22;1985;48.592;8.850;2024-02-23T06:25:39;5.10;99.90
3942;DHT22;1985;48.592;8.850;2024-02-23T06:28:05;5.10;99.90
3942;DHT22;1985;48.592;8.850;2024-02-23T06:30:32;5.10;99.90
3942;DHT22;1985;48.592;8.850;2024-02-23T06:32:57;5.10;99.90
3942;DHT22;1985;48.592;8.850;2024-02-23T06:35:23;5.00;99.90
3942;DHT22;1985;48.592;8.850;2024-02-23T06:37:48;5.00;99.90
3942;DHT22;1985;48.592;8.850;2024-02-23T06:40:14;4.90;99.90
3942;DHT22;1985;48.592;8.850;2024-02-23T06:42:40;4.90;99.90
3942;DHT22;1985;48.592;8.850;2024-02-23T06:45:06;4.60;99.90
3942;DHT22;1985;48.592;8.850;2024-02-23T06:47:33;4.50;99.90
3942;DHT22;1985;48.592;8.850;2024-02-23T06:49:59;4.60;99.90
3942;DHT22;1985;48.592;8.850;2024-02-23T06:52:25;4.70;99.90
3942;DHT22;1985;48.592;8.850;2024-02-23T06:54:51;4.70;99.90
3942;DHT22;1985;48.592;8.850;2024-02-23T06:57:17;4.80;99.90
3942;DHT22;1985;48.592;8.850;2024-02-23T06:59:43;4.90;99.90
3942;DHT22;1985;48.592;8.850;2024-02-23T07:02:09;4.90;99.90
3942;DHT22;1985;48.592;8.850;2024-02-23T07:04:34;5.00;99.90
3942;DHT22;1985;48.592;8.850;2024-02-23T07:07:00;5.00;99.90
3942;DHT22;1985;48.592;8.850;2024-02-23T07:09:32;5.10;99.90
3942;DHT22;1985;48.592;8.850;2024-02-23T07:11:58;5.10;99.90
3942;DHT22;1985;48.592;8.850;2024-02-23T07:14:24;5.10;99.90
3942;DHT22;1985;48.592;8.850;2024-02-23T07:16:50;5.20;99.90
3942;DHT22;1985;48.592;8.850;2024-02-23T07:19:17;5.20;99.90
3942;DHT22;1985;48.592;8.850;2024-02-23T07:21:43;5.20;99.90
3942;DHT22;1985;48.592;8.850;2024-02-23T07:24:08;5.30;99.90
3942;DHT22;1985;48.592;8.850;2024-02-23T07:26:34;5.30;99.90
3942;DHT22;1985;48.592;8.850;2024-02-23T07:29:00;5.30;99.90
3942;DHT22;1985;48.592;8.850;2024-02-23T07:31:25;5.30;99.90
3942;DHT22;1985;48.592;8.850;2024-02-23T07:33:51;5.40;99.90
3942;DHT22;1985;48.592;8.850;2024-02-23T07:36:17;5.50;99.90
3942;DHT22;1985;48.592;8.850;2024-02-23T07:38:43;5.60;99.90
3942;DHT22;1985;48.592;8.850;2024-02-23T07:41:10;5.70;99.90
3942;DHT22;1985;48.592;8.850;2024-02-23T07:43:36;5.60;99.90
3942;DHT22;1985;48.592;8.850;2024-02-23T07:46:02;5.50;99.90
3942;DHT22;1985;48.592;8.850;2024-02-23T07:48:28;5.40;99.90
3942;DHT22;1985;48.592;8.850;2024-02-23T07:50:53;5.40;99.90
3942;DHT22;1985;48.592;8.850;2024-02-23T07:53:19;5.30;99.90
3942;DHT22;1985;48.592;8.850;2024-02-23T07:55:45;5.30;99.90
3942;DHT22;1985;48.592;8.850;2024-02-23T07:58:10;5.20;99.90
3942;DHT22;1985;48.592;8.850;2024-02-23T08:00:36;5.20;99.90
3942;DHT22;1985;48.592;8.850;2024-02-23T08:03:04;5.20;99.90
3942;DHT22;1985;48.592;8.850;2024-02-23T08:05:30;5.30;99.90
3942;DHT22;1985;48.592;8.850;2024-02-23T08:07:55;5.20;99.90
3942;DHT22;1985;48.592;8.850;2024-02-23T08:10:21;5.20;99.90
3942;DHT22;1985;48.592;8.850;2024-02-23T08:12:47;5.20;99.90
3942;DHT22;1985;48.592;8.850;2024-02-23T08:15:13;5.10;99.90
3942;DHT22;1985;48.592;8.850;2024-02-23T08:17:38;5.10;99.90
3942;DHT22;1985;48.592;8.850;2024-02-23T08:20:04;5.20;99.90
3942;DHT22;1985;48.592;8.850;2024-02-23T08:22:30;5.30;99.90
3942;DHT22;1985;48.592;8.850;2024-02-23T08:24:56;5.10;99.90
3942;DHT22;1985;48.592;8.850;2024-02-23T08:27:22;5.00;99.90
3942;DHT22;1985;48.592;8.850;2024-02-23T08:29:48;5.00;99.90
3942;DHT22;1985;48.592;8.850;2024-02-23T08:32:13;4.90;99.90
3942;DHT22;1985;48.592;8.850;2024-02-23T08:34:39;4.80;99.90
3942;DHT22;1985;48.592;8.850;2024-02-23T08:37:05;4.80;99.90
3942;DHT22;1985;48.592;8.850;2024-02-23T08:39:30;4.70;99.90
3942;DHT22;1985;48.592;8.850;2024-02-23T08:41:56;4.60;99.90
3942;DHT22;1985;48.592;8.850;2024-02-23T08:44:22;4.70;99.90
3942;DHT22;1985;48.592;8.850;2024-02-23T08:46:47;4.90;99.90
3942;DHT22;1985;48.592;8.850;2024-02-23T08:49:14;5.00;99.90
3942;DHT22;1985;48.592;8.850;2024-02-23T08:51:40;5.20;99.90
3942;DHT22;1985;48.592;8.850;2024-02-23T08:54:06;5.30;99.90
3942;DHT22;1985;48.592;8.850;2024-02-23T08:56:37;5.30;99.90
3942;DHT22;1985;48.592;8.850;2024-02-23T08:59:03;5.40;99.90
3942;DHT22;1985;48.592;8.850;2024-02-23T09:01:29;5.30;99.90
3942;DHT22;1985;48.592;8.850;2024-02-23T09:03:55;5.30;99.90
3942;DHT22;1985;48.592;8.850;2024-02-23T09:06:20;5.30;99.90
3942;DHT22;1985;48.592;8.850;2024-02-23T09:08:46;5.50;99.90
3942;DHT22;1985;48.592;8.850;2024-02-23T09:11:12;5.40;99.90
3942;DHT22;1985;48.592;8.850;2024-02-23T09:13:39;5.50;99.90
3942;DHT22;1985;48.592;8.850;2024-02-23T09:16:07;5.60;99.90
3942;DHT22;1985;48.592;8.850;2024-02-23T09:18:32;5.60;99.90
3942;DHT22;1985;48.592;8.850;2024-02-23T09:20:59;5.50;99.90
3942;DHT22;1985;48.592;8.850;2024-02-23T09:23:25;5.50;99.90
3942;DHT22;1985;48.592;8.850;2024-02-23T09:25:50;5.50;99.90
3942;DHT22;1985;48.592;8.850;2024-02-23T09:28:16;5.40;99.90
3942;DHT22;1985;48.592;8.850;2024-02-23T09:30:42;5.40;99.90
3942;DHT22;1985;48.592;8.850;2024-02-23T09:33:07;5.40;99.90
3942;DHT22;1985;48.592;8.850;2024-02-23T09:35:33;5.40;99.90
3942;DHT22;1985;48.592;8.850;2024-02-23T09:37:59;5.40;99.90
3942;DHT22;1985;48.592;8.850;2024-02-23T09:40:25;5.50;99.90
3942;DHT22;1985;48.592;8.850;2024-02-23T09:42:57;5.50;99.90
3942;DHT22;1985;48.592;8.850;2024-02-23T09:45:24;5.70;99.90
3942;DHT22;1985;48.592;8.850;2024-02-23T09:47:56;5.90;99.90
3942;DHT22;1985;48.592;8.850;2024-02-23T09:50:22;5.80;99.90
3942;DHT22;1985;48.592;8.850;2024-02-23T09:52:48;5.70;99.90
3942;DHT22;1985;48.592;8.850;2024-02-23T09:55:17;5.60;99.90
3942;DHT22;1985;48.592;8.850;2024-02-23T09:57:44;5.60;99.90
3942;DHT22;1985;48.592;8.850;2024-02-23T10:00:11;5.70;99.90
3942;DHT22;1985;48.592;8.850;2024-02-23T10:02:36;5.70;99.90
3942;DHT22;1985;48.592;8.850;2024-02-23T10:05:02;5.70;99.90
3942;DHT22;1985;48.592;8.850;2024-02-23T10:07:28;5.80;99.90
3942;DHT22;1985;48.592;8.850;2024-02-23T10:09:54;5.80;99.90
3942;DHT22;1985;48.592;8.850;2024-02-23T10:12:21;5.80;99.90
3942;DHT22;1985;48.592;8.850;2024-02-23T10:14:46;6.00;99.90
3942;DHT22;1985;48.592;8.850;2024-02-23T10:17:12;6.00;99.90
3942;DHT22;1985;48.592;8.850;2024-02-23T10:19:37;6.10;99.90
3942;DHT22;1985;48.592;8.850;2024-02-23T10:22:04;6.10;99.90
3942;DHT22;1985;48.592;8.850;2024-02-23T10:24:30;6.10;99.90
3942;DHT22;1985;48.592;8.850;2024-02-23T10:26:56;6.00;99.90
3942;DHT22;1985;48.592;8.850;2024-02-23T10:29:23;6.10;99.90
3942;DHT22;1985;48.592;8.850;2024-02-23T10:31:48;6.10;99.90
3942;DHT22;1985;48.592;8.850;2024-02-23T10:34:19;6.40;99.90
3942;DHT22;1985;48.592;8.850;2024-02-23T10:36:45;6.30;99.90
3942;DHT22;1985;48.592;8.850;2024-02-23T10:39:17;6.50;99.90
3942;DHT22;1985;48.592;8.850;2024-02-23T10:41:47;6.90;99.90
3942;DHT22;1985;48.592;8.850;2024-02-23T10:44:17;7.10;99.90
3942;DHT22;1985;48.592;8.850;2024-02-23T10:46:44;8.30;99.90
3942;DHT22;1985;48.592;8.850;2024-02-23T10:49:11;9.00;99.90
3942;DHT22;1985;48.592;8.850;2024-02-23T10:51:39;8.30;99.90
3942;DHT22;1985;48.592;8.850;2024-02-23T10:54:06;8.10;99.90
3942;DHT22;1985;48.592;8.850;2024-02-23T10:56:32;8.30;99.90
3942;DHT22;1985;48.592;8.850;2024-02-23T10:58:57;8.10;99.90
3942;DHT22;1985;48.592;8.850;2024-02-23T11:01:24;7.90;99.90
3942;DHT22;1985;48.592;8.850;2024-02-23T11:03:51;7.80;99.90
3942;DHT22;1985;48.592;8.850;2024-02-23T11:06:19;7.90;99.90
3942;DHT22;1985;48.592;8.850;2024-02-23T11:08:47;7.90;99.90
3942;DHT22;1985;48.592;8.850;2024-02-23T11:11:16;7.80;99.90
3942;DHT22;1985;48.592;8.850;2024-02-23T11:13:44;7.70;99.90
3942;DHT22;1985;48.592;8.850;2024-02-23T11:16:11;7.50;99.90
3942;DHT22;1985;48.592;8.850;2024-02-23T11:18:39;7.20;99.90
3942;DHT22;1985;48.592;8.850;2024-02-23T11:21:08;7.00;99.90
3942;DHT22;1985;48.592;8.850;2024-02-23T11:23:50;6.90;99.90
3942;DHT22;1985;48.592;8.850;2024-02-23T11:26:17;6.90;99.90
3942;DHT22;1985;48.592;8.850;2024-02-23T11:28:49;7.00;99.90
3942;DHT22;1985;48.592;8.850;2024-02-23T11:31:18;7.20;99.90
3942;DHT22;1985;48.592;8.850;2024-02-23T11:33:48;7.50;99.90
3942;DHT22;1985;48.592;8.850;2024-02-23T11:36:23;7.70;99.90
3942;DHT22;1985;48.592;8.850;2024-02-23T11:38:52;8.20;99.90
3942;DHT22;1985;48.592;8.850;2024-02-23T11:41:20;8.30;99.90
3942;DHT22;1985;48.592;8.850;2024-02-23T11:43:46;8.30;99.90
3942;DHT22;1985;48.592;8.850;2024-02-23T11:46:14;8.30;99.90
3942;DHT22;1985;48.592;8.850;2024-02-23T11:48:40;7.80;99.90
3942;DHT22;1985;48.592;8.850;2024-02-23T11:51:06;7.70;99.90
3942;DHT22;1985;48.592;8.850;2024-02-23T11:53:33;7.90;99.90
3942;DHT22;1985;48.592;8.850;2024-02-23T11:55:58;8.20;99.90
3942;DHT22;1985;48.592;8.850;2024-02-23T11:58:24;8.30;99.90
3942;DHT22;1985;48.592;8.850;2024-02-23T12:00:51;8.30;99.90
3942;DHT22;1985;48.592;8.850;2024-02-23T12:03:17;8.20;99.90
3942;DHT22;1985;48.592;8.850;2024-02-23T12:05:43;8.20;99.90
3942;DHT22;1985;48.592;8.850;2024-02-23T12:08:09;8.80;99.90
3942;DHT22;1985;48.592;8.850;2024-02-23T12:10:34;8.90;99.90
3942;DHT22;1985;48.592;8.850;2024-02-23T12:13:02;8.30;99.90
3942;DHT22;1985;48.592;8.850;2024-02-23T12:15:28;8.30;99.90
3942;DHT22;1985;48.592;8.850;2024-02-23T12:17:58;8.50;99.90
3942;DHT22;1985;48.592;8.850;2024-02-23T12:20:24;8.60;99.90
3942;DHT22;1985;48.592;8.850;2024-02-23T12:22:49;8.30;99.90
3942;DHT22;1985;48.592;8.850;2024-02-23T12:25:15;7.90;99.90
3942;DHT22;1985;48.592;8.850;2024-02-23T12:27:41;7.80;99.90
3942;DHT22;1985;48.592;8.850;2024-02-23T12:30:14;7.80;99.90
3942;DHT22;1985;48.592;8.850;2024-02-23T12:32:43;7.80;99.90
3942;DHT22;1985;48.592;8.850;2024-02-23T12:35:11;7.70;99.90
3942;DHT22;1985;48.592;8.850;2024-02-23T12:37:37;7.30;99.90
3942;DHT22;1985;48.592;8.850;2024-02-23T12:40:03;7.30;99.90
3942;DHT22;1985;48.592;8.850;2024-02-23T12:42:29;7.40;99.90
3942;DHT22;1985;48.592;8.850;2024-02-23T12:44:54;7.30;99.90
3942;DHT22;1985;48.592;8.850;2024-02-23T12:47:20;7.40;99.90
3942;DHT22;1985;48.592;8.850;2024-02-23T12:49:45;7.40;99.90
3942;DHT22;1985;48.592;8.850;2024-02-23T12:52:12;7.30;99.90
3942;DHT22;1985;48.592;8.850;2024-02-23T12:54:38;7.30;99.90
3942;DHT22;1985;48.592;8.850;2024-02-23T12:57:03;7.30;99.90
3942;DHT22;1985;48.592;8.850;2024-02-23T12:59:29;7.40;99.90
3942;DHT22;1985;48.592;8.850;2024-02-23T13:01:55;7.50;99.90
3942;DHT22;1985;48.592;8.850;2024-02-23T13:04:20;7.50;99.90
3942;DHT22;1985;48.592;8.850;2024-02-23T13:06:46;7.60;99.90
3942;DHT22;1985;48.592;8.850;2024-02-23T13:09:12;7.70;99.90
3942;DHT22;1985;48.592;8.850;2024-02-23T13:11:40;7.70;99.90
3942;DHT22;1985;48.592;8.850;2024-02-23T13:14:06;7.60;99.90
3942;DHT22;1985;48.592;8.850;2024-02-23T13:16:31;7.60;99.90
3942;DHT22;1985;48.592;8.850;2024-02-23T13:22:10;7.80;99.90
3942;DHT22;1985;48.592;8.850;2024-02-23T13:24:35;7.90;99.90
3942;DHT22;1985;48.592;8.850;2024-02-23T13:27:01;7.70;99.90
3942;DHT22;1985;48.592;8.850;2024-02-23T13:29:27;7.70;99.90
3942;DHT22;1985;48.592;8.850;2024-02-23T13:31:53;8.00;99.90
3942;DHT22;1985;48.592;8.850;2024-02-23T13:34:19;8.40;99.90
3942;DHT22;1985;48.592;8.850;2024-02-23T13:36:44;8.50;99.90
3942;DHT22;1985;48.592;8.850;2024-02-23T13:39:10;8.40;99.90
3942;DHT22;1985;48.592;8.850;2024-02-23T13:41:36;8.50;99.90
3942;DHT22;1985;48.592;8.850;2024-02-23T13:44:02;8.60;99.90
3942;DHT22;1985;48.592;8.850;2024-02-23T13:46:27;8.40;99.90
3942;DHT22;1985;48.592;8.850;2024-02-23T13:49:04;8.20;99.90
3942;DHT22;1985;48.592;8.850;2024-02-23T13:51:31;8.20;99.90
3942;DHT22;1985;48.592;8.850;2024-02-23T13:53:57;8.20;99.90
3942;DHT22;1985;48.592;8.850;2024-02-23T13:56:23;8.20;99.90
3942;DHT22;1985;48.592;8.850;2024-02-23T13:58:48;8.30;99.90
3942;DHT22;1985;48.592;8.850;2024-02-23T14:01:14;8.40;99.90
3942;DHT22;1985;48.592;8.850;2024-02-23T14:03:40;8.30;99.90
3942;DHT22;1985;48.592;8.850;2024-02-23T14:06:06;8.40;99.90
3942;DHT22;1985;48.592;8.850;2024-02-23T14:08:32;8.40;99.90
3942;DHT22;1985;48.592;8.850;2024-02-23T14:11:03;8.50;99.90
3942;DHT22;1985;48.592;8.850;2024-02-23T14:13:32;8.20;99.90
3942;DHT22;1985;48.592;8.850;2024-02-23T14:15:58;8.10;99.90
3942;DHT22;1985;48.592;8.850;2024-02-23T14:18:23;7.80;99.90
3942;DHT22;1985;48.592;8.850;2024-02-23T14:20:50;7.80;99.90
3942;DHT22;1985;48.592;8.850;2024-02-23T14:23:17;7.80;99.90
3942;DHT22;1985;48.592;8.850;2024-02-23T14:25:43;7.70;99.90
3942;DHT22;1985;48.592;8.850;2024-02-23T14:28:09;7.70;99.90
3942;DHT22;1985;48.592;8.850;2024-02-23T14:30:35;7.80;99.90
3942;DHT22;1985;48.592;8.850;2024-02-23T14:33:01;7.70;99.90
3942;DHT22;1985;48.592;8.850;2024-02-23T14:35:27;7.60;99.90
3942;DHT22;1985;48.592;8.850;2024-02-23T14:37:52;7.40;99.90
3942;DHT22;1985;48.592;8.850;2024-02-23T14:40:18;7.40;99.90
3942;DHT22;1985;48.592;8.850;2024-02-23T14:42:43;7.50;99.90
3942;DHT22;1985;48.592;8.850;2024-02-23T14:45:09;7.70;99.90
3942;DHT22;1985;48.592;8.850;2024-02-23T14:47:37;7.70;99.90
3942;DHT22;1985;48.592;8.850;2024-02-23T14:50:03;7.80;99.90
3942;DHT22;1985;48.592;8.850;2024-02-23T14:52:29;7.70;99.90
3942;DHT22;1985;48.592;8.850;2024-02-23T14:54:54;7.60;99.90
3942;DHT22;1985;48.592;8.850;2024-02-23T14:57:20;7.60;99.90
3942;DHT22;1985;48.592;8.850;2024-02-23T14:59:47;7.40;99.90
3942;DHT22;1985;48.592;8.850;2024-02-23T15:02:19;7.30;99.90
3942;DHT22;1985;48.592;8.850;2024-02-23T15:04:45;7.40;99.90
3942;DHT22;1985;48.592;8.850;2024-02-23T15:07:11;7.50;99.90
3942;DHT22;1985;48.592;8.850;2024-02-23T15:09:37;7.40;99.90
3942;DHT22;1985;48.592;8.850;2024-02-23T15:12:03;7.30;99.90
3942;DHT22;1985;48.592;8.850;2024-02-23T15:14:28;7.30;99.90
3942;DHT22;1985;48.592;8.850;2024-02-23T15:16:54;7.10;99.90
3942;DHT22;1985;48.592;8.850;2024-02-23T15:19:20;7.00;99.90
3942;DHT22;1985;48.592;8.850;2024-02-23T15:21:48;7.00;99.90
3942;DHT22;1985;48.592;8.850;2024-02-23T15:24:14;6.90;99.90
3942;DHT22;1985;48.592;8.850;2024-02-23T15:26:43;7.00;99.90
3942;DHT22;1985;48.592;8.850;2024-02-23T15:29:09;7.10;99.90
3942;DHT22;1985;48.592;8.850;2024-02-23T15:31:35;7.20;99.90
3942;DHT22;1985;48.592;8.850;2024-02-23T15:34:01;7.20;99.90
3942;DHT22;1985;48.592;8.850;2024-02-23T15:36:27;7.10;99.90
3942;DHT22;1985;48.592;8.850;2024-02-23T15:38:53;7.00;99.90
3942;DHT22;1985;48.592;8.850;2024-02-23T15:41:27;6.90;99.90
3942;DHT22;1985;48.592;8.850;2024-02-23T15:43:52;7.00;99.90
3942;DHT22;1985;48.592;8.850;2024-02-23T15:46:18;6.90;99.90
3942;DHT22;1985;48.592;8.850;2024-02-23T15:48:44;7.20;99.90
3942;DHT22;1985;48.592;8.850;2024-02-23T15:51:09;7.30;99.90
3942;DHT22;1985;48.592;8.850;2024-02-23T15:53:35;7.40;99.90
3942;DHT22;1985;48.592;8.850;2024-02-23T15:56:01;7.50;99.90
3942;DHT22;1985;48.592;8.850;2024-02-23T15:58:27;7.50;99.90
3942;DHT22;1985;48.592;8.850;2024-02-23T16:00:53;7.60;99.90
3942;DHT22;1985;48.592;8.850;2024-02-23T16:03:20;7.80;99.90
3942;DHT22;1985;48.592;8.850;2024-02-23T16:05:45;7.90;99.90
3942;DHT22;1985;48.592;8.850;2024-02-23T16:08:12;8.00;99.90
3942;DHT22;1985;48.592;8.850;2024-02-23T16:10:38;8.10;99.90
3942;DHT22;1985;48.592;8.850;2024-02-23T16:13:05;8.10;99.90